Main page


Airports :

Kassel, Germany

Kassel Airport

latitude: 51-24N, longitude: 009-23E, elevation: 277 m

Current weather observation

The report was made 35 minutes ago, at 06:20 UTC
Wind 1 kt from variable directions
Temperature -5°C
Humidity 93%
Pressure 1027 hPa
Visibility 10 km or more
Scattered clouds at a height of 4800 ft

METAR: EDVK 210620Z VRB01KT 9999 SCT048 M05/M06 Q1027

Time: 07:55 (06:55 UTC)


The report was made 10 hours and 55 minutes ago, at 20:00 UTC
Forecast valid from 20 at 21 UTC to 21 at 03 UTC
Wind 3 kt from variable directions
Visibility 10 km or more
no clouds below 1500 m and no cumulonimbus

TAF: EDVK 202000Z 2021/2103 VRB03KT CAVOK

Weather observations and forecasts of more than 4000 airports (METAR and TAF reports).

The available stations are represented by yellow and red dots on the map.

Hover mouse over dot to see the name of the station.

Then click to see weather observations and forecasts.

To change the map : click on the green buttons with a black cross to zoom in, on the green button with a dash to zoom out, or on the green arrows for adjacent maps.